sensor_id;sensor_type;location;lat;lon;timestamp;temperature;humidity
63802;DHT22;49949;43.060;25.624;2024-03-07T00:00:09;3.60;99.90
63802;DHT22;49949;43.060;25.624;2024-03-07T00:02:49;3.60;99.90
63802;DHT22;49949;43.060;25.624;2024-03-07T00:05:16;3.60;99.90
63802;DHT22;49949;43.060;25.624;2024-03-07T00:07:43;3.50;99.90
63802;DHT22;49949;43.060;25.624;2024-03-07T00:10:09;3.40;99.90
63802;DHT22;49949;43.060;25.624;2024-03-07T00:12:36;3.50;99.90
63802;DHT22;49949;43.060;25.624;2024-03-07T00:15:09;3.60;99.90
63802;DHT22;49949;43.060;25.624;2024-03-07T00:17:34;3.60;99.90
63802;DHT22;49949;43.060;25.624;2024-03-07T00:20:01;3.60;99.90
63802;DHT22;49949;43.060;25.624;2024-03-07T00:22:28;3.60;99.90
63802;DHT22;49949;43.060;25.624;2024-03-07T00:24:55;3.60;99.90
63802;DHT22;49949;43.060;25.624;2024-03-07T00:27:22;3.70;99.90
63802;DHT22;49949;43.060;25.624;2024-03-07T00:29:50;3.60;99.90
63802;DHT22;49949;43.060;25.624;2024-03-07T00:32:20;3.60;99.90
63802;DHT22;49949;43.060;25.624;2024-03-07T00:34:46;3.70;99.90
63802;DHT22;49949;43.060;25.624;2024-03-07T00:37:12;3.80;99.90
63802;DHT22;49949;43.060;25.624;2024-03-07T00:39:38;3.80;99.90
63802;DHT22;49949;43.060;25.624;2024-03-07T00:42:04;3.90;99.90
63802;DHT22;49949;43.060;25.624;2024-03-07T00:44:30;3.90;99.90
63802;DHT22;49949;43.060;25.624;2024-03-07T00:46:56;3.90;99.90
63802;DHT22;49949;43.060;25.624;2024-03-07T00:49:22;3.90;99.90
63802;DHT22;49949;43.060;25.624;2024-03-07T00:51:48;3.90;99.90
63802;DHT22;49949;43.060;25.624;2024-03-07T00:54:14;3.80;99.90
63802;DHT22;49949;43.060;25.624;2024-03-07T00:56:40;3.90;99.90
63802;DHT22;49949;43.060;25.624;2024-03-07T00:59:06;3.90;99.90
63802;DHT22;49949;43.060;25.624;2024-03-07T01:01:32;4.00;99.90
63802;DHT22;49949;43.060;25.624;2024-03-07T01:04:03;4.00;99.90
63802;DHT22;49949;43.060;25.624;2024-03-07T01:06:29;4.00;99.90
63802;DHT22;49949;43.060;25.624;2024-03-07T01:08:55;4.00;99.90
63802;DHT22;49949;43.060;25.624;2024-03-07T01:11:20;4.10;99.90
63802;DHT22;49949;43.060;25.624;2024-03-07T01:13:46;4.00;99.90
63802;DHT22;49949;43.060;25.624;2024-03-07T01:16:12;4.00;99.90
63802;DHT22;49949;43.060;25.624;2024-03-07T01:18:38;4.00;99.90
63802;DHT22;49949;43.060;25.624;2024-03-07T01:21:04;4.10;99.90
63802;DHT22;49949;43.060;25.624;2024-03-07T01:23:31;4.10;99.90
63802;DHT22;49949;43.060;25.624;2024-03-07T01:26:00;4.20;99.90
63802;DHT22;49949;43.060;25.624;2024-03-07T01:28:26;4.30;99.90
63802;DHT22;49949;43.060;25.624;2024-03-07T01:30:56;4.30;99.90
63802;DHT22;49949;43.060;25.624;2024-03-07T01:33:23;4.30;99.90
63802;DHT22;49949;43.060;25.624;2024-03-07T01:35:49;4.30;99.90
63802;DHT22;49949;43.060;25.624;2024-03-07T01:38:15;4.20;99.90
63802;DHT22;49949;43.060;25.624;2024-03-07T01:40:41;4.30;99.90
63802;DHT22;49949;43.060;25.624;2024-03-07T01:43:08;4.30;99.90
63802;DHT22;49949;43.060;25.624;2024-03-07T01:45:34;4.40;99.90
63802;DHT22;49949;43.060;25.624;2024-03-07T01:48:03;4.40;99.90
63802;DHT22;49949;43.060;25.624;2024-03-07T01:50:29;4.50;99.90
63802;DHT22;49949;43.060;25.624;2024-03-07T01:52:55;4.50;99.90
63802;DHT22;49949;43.060;25.624;2024-03-07T01:55:22;4.60;99.90
63802;DHT22;49949;43.060;25.624;2024-03-07T01:57:50;4.60;99.90
63802;DHT22;49949;43.060;25.624;2024-03-07T02:00:16;4.50;99.90
63802;DHT22;49949;43.060;25.624;2024-03-07T02:02:44;4.50;99.90
63802;DHT22;49949;43.060;25.624;2024-03-07T02:05:10;4.60;99.90
63802;DHT22;49949;43.060;25.624;2024-03-07T02:07:36;4.60;99.90
63802;DHT22;49949;43.060;25.624;2024-03-07T02:10:03;4.60;99.90
63802;DHT22;49949;43.060;25.624;2024-03-07T02:12:29;4.60;99.90
63802;DHT22;49949;43.060;25.624;2024-03-07T02:14:56;4.70;99.90
63802;DHT22;49949;43.060;25.624;2024-03-07T02:17:26;4.70;99.90
63802;DHT22;49949;43.060;25.624;2024-03-07T02:19:52;4.80;99.90
63802;DHT22;49949;43.060;25.624;2024-03-07T02:22:18;4.80;99.90
63802;DHT22;49949;43.060;25.624;2024-03-07T02:24:44;4.70;99.90
63802;DHT22;49949;43.060;25.624;2024-03-07T02:27:11;4.60;99.90
63802;DHT22;49949;43.060;25.624;2024-03-07T02:29:37;4.70;99.90
63802;DHT22;49949;43.060;25.624;2024-03-07T02:32:03;4.70;99.90
63802;DHT22;49949;43.060;25.624;2024-03-07T02:34:29;4.80;99.90
63802;DHT22;49949;43.060;25.624;2024-03-07T02:36:55;4.90;99.90
63802;DHT22;49949;43.060;25.624;2024-03-07T02:39:21;5.00;99.90
63802;DHT22;49949;43.060;25.624;2024-03-07T02:41:47;5.00;99.90
63802;DHT22;49949;43.060;25.624;2024-03-07T02:44:13;5.00;99.90
63802;DHT22;49949;43.060;25.624;2024-03-07T02:46:40;5.00;99.90
63802;DHT22;49949;43.060;25.624;2024-03-07T02:49:06;5.00;99.90
63802;DHT22;49949;43.060;25.624;2024-03-07T02:51:31;5.10;99.90
63802;DHT22;49949;43.060;25.624;2024-03-07T02:53:57;5.10;99.90
63802;DHT22;49949;43.060;25.624;2024-03-07T02:56:24;5.10;99.90
63802;DHT22;49949;43.060;25.624;2024-03-07T02:58:50;5.10;99.90
63802;DHT22;49949;43.060;25.624;2024-03-07T03:01:17;5.20;99.90
63802;DHT22;49949;43.060;25.624;2024-03-07T03:03:43;5.20;99.90
63802;DHT22;49949;43.060;25.624;2024-03-07T03:06:09;5.30;99.90
63802;DHT22;49949;43.060;25.624;2024-03-07T03:08:35;5.30;99.90
63802;DHT22;49949;43.060;25.624;2024-03-07T03:11:01;5.30;99.90
63802;DHT22;49949;43.060;25.624;2024-03-07T03:13:27;5.40;99.90
63802;DHT22;49949;43.060;25.624;2024-03-07T03:15:54;5.50;99.90
63802;DHT22;49949;43.060;25.624;2024-03-07T03:18:22;5.50;99.90
63802;DHT22;49949;43.060;25.624;2024-03-07T03:20:47;5.50;99.90
63802;DHT22;49949;43.060;25.624;2024-03-07T03:23:14;5.40;99.90
63802;DHT22;49949;43.060;25.624;2024-03-07T03:25:40;5.40;99.90
63802;DHT22;49949;43.060;25.624;2024-03-07T03:28:06;5.40;99.90
63802;DHT22;49949;43.060;25.624;2024-03-07T03:30:39;5.40;99.90
63802;DHT22;49949;43.060;25.624;2024-03-07T03:33:06;5.30;99.90
63802;DHT22;49949;43.060;25.624;2024-03-07T03:35:36;5.10;99.90
63802;DHT22;49949;43.060;25.624;2024-03-07T03:38:02;5.10;99.90
63802;DHT22;49949;43.060;25.624;2024-03-07T03:40:28;5.20;99.90
63802;DHT22;49949;43.060;25.624;2024-03-07T03:42:54;5.20;99.90
63802;DHT22;49949;43.060;25.624;2024-03-07T03:45:19;5.10;99.90
63802;DHT22;49949;43.060;25.624;2024-03-07T03:47:45;5.10;99.90
63802;DHT22;49949;43.060;25.624;2024-03-07T03:50:12;5.10;99.90
63802;DHT22;49949;43.060;25.624;2024-03-07T03:52:39;5.10;99.90
63802;DHT22;49949;43.060;25.624;2024-03-07T03:55:06;5.10;99.90
63802;DHT22;49949;43.060;25.624;2024-03-07T03:57:32;5.10;99.90
63802;DHT22;49949;43.060;25.624;2024-03-07T04:00:05;5.00;99.90
63802;DHT22;49949;43.060;25.624;2024-03-07T04:02:35;5.00;99.90
63802;DHT22;49949;43.060;25.624;2024-03-07T04:05:04;5.00;99.90
63802;DHT22;49949;43.060;25.624;2024-03-07T04:07:30;5.00;99.90
63802;DHT22;49949;43.060;25.624;2024-03-07T04:09:58;4.90;99.90
63802;DHT22;49949;43.060;25.624;2024-03-07T04:12:24;4.90;99.90
63802;DHT22;49949;43.060;25.624;2024-03-07T04:14:53;5.00;99.90
63802;DHT22;49949;43.060;25.624;2024-03-07T04:17:21;5.00;99.90
63802;DHT22;49949;43.060;25.624;2024-03-07T04:19:47;5.00;99.90
63802;DHT22;49949;43.060;25.624;2024-03-07T04:22:12;5.00;99.90
63802;DHT22;49949;43.060;25.624;2024-03-07T04:24:38;4.90;99.90
63802;DHT22;49949;43.060;25.624;2024-03-07T04:27:06;4.80;99.90
63802;DHT22;49949;43.060;25.624;2024-03-07T04:29:35;4.80;99.90
63802;DHT22;49949;43.060;25.624;2024-03-07T04:32:02;4.90;99.90
63802;DHT22;49949;43.060;25.624;2024-03-07T04:34:29;4.90;99.90
63802;DHT22;49949;43.060;25.624;2024-03-07T04:36:59;4.90;99.90
63802;DHT22;49949;43.060;25.624;2024-03-07T04:39:29;4.80;99.90
63802;DHT22;49949;43.060;25.624;2024-03-07T04:42:07;4.80;99.90
63802;DHT22;49949;43.060;25.624;2024-03-07T04:44:35;4.80;99.90
63802;DHT22;49949;43.060;25.624;2024-03-07T04:47:02;4.80;99.90
63802;DHT22;49949;43.060;25.624;2024-03-07T04:49:29;4.90;99.90
63802;DHT22;49949;43.060;25.624;2024-03-07T04:51:56;4.90;99.90
63802;DHT22;49949;43.060;25.624;2024-03-07T04:54:27;4.90;99.90
63802;DHT22;49949;43.060;25.624;2024-03-07T04:56:54;5.00;99.90
63802;DHT22;49949;43.060;25.624;2024-03-07T04:59:20;5.00;99.90
63802;DHT22;49949;43.060;25.624;2024-03-07T05:01:47;5.00;99.90
63802;DHT22;49949;43.060;25.624;2024-03-07T05:04:15;5.00;99.90
63802;DHT22;49949;43.060;25.624;2024-03-07T05:06:41;5.00;99.90
63802;DHT22;49949;43.060;25.624;2024-03-07T05:09:08;5.10;99.90
63802;DHT22;49949;43.060;25.624;2024-03-07T05:11:38;5.10;99.90
63802;DHT22;49949;43.060;25.624;2024-03-07T05:14:03;5.20;99.90
63802;DHT22;49949;43.060;25.624;2024-03-07T05:16:31;5.20;99.90
63802;DHT22;49949;43.060;25.624;2024-03-07T05:18:59;5.20;99.90
63802;DHT22;49949;43.060;25.624;2024-03-07T05:21:27;5.30;99.90
63802;DHT22;49949;43.060;25.624;2024-03-07T05:24:02;5.40;99.90
63802;DHT22;49949;43.060;25.624;2024-03-07T05:26:28;5.50;99.90
63802;DHT22;49949;43.060;25.624;2024-03-07T05:29:02;5.50;99.90
63802;DHT22;49949;43.060;25.624;2024-03-07T05:31:31;5.50;99.90
63802;DHT22;49949;43.060;25.624;2024-03-07T05:34:00;5.50;99.90
63802;DHT22;49949;43.060;25.624;2024-03-07T05:36:29;5.50;99.90
63802;DHT22;49949;43.060;25.624;2024-03-07T05:38:56;5.60;99.90
63802;DHT22;49949;43.060;25.624;2024-03-07T05:41:22;5.80;99.90
63802;DHT22;49949;43.060;25.624;2024-03-07T05:43:47;5.70;99.90
63802;DHT22;49949;43.060;25.624;2024-03-07T05:46:16;5.70;99.90
63802;DHT22;49949;43.060;25.624;2024-03-07T05:48:42;5.70;99.90
63802;DHT22;49949;43.060;25.624;2024-03-07T05:51:08;5.80;99.90
63802;DHT22;49949;43.060;25.624;2024-03-07T05:53:35;6.00;99.90
63802;DHT22;49949;43.060;25.624;2024-03-07T05:56:03;6.10;99.90
63802;DHT22;49949;43.060;25.624;2024-03-07T05:58:28;6.20;99.90
63802;DHT22;49949;43.060;25.624;2024-03-07T06:00:54;6.30;99.90
63802;DHT22;49949;43.060;25.624;2024-03-07T06:03:20;6.40;99.90
63802;DHT22;49949;43.060;25.624;2024-03-07T06:05:46;6.40;99.90
63802;DHT22;49949;43.060;25.624;2024-03-07T06:08:17;6.40;99.90
63802;DHT22;49949;43.060;25.624;2024-03-07T06:10:46;6.60;99.90
63802;DHT22;49949;43.060;25.624;2024-03-07T06:13:13;6.70;99.90
63802;DHT22;49949;43.060;25.624;2024-03-07T06:15:39;6.70;99.90
63802;DHT22;49949;43.060;25.624;2024-03-07T06:18:08;6.70;99.90
63802;DHT22;49949;43.060;25.624;2024-03-07T06:20:36;6.70;99.90
63802;DHT22;49949;43.060;25.624;2024-03-07T06:23:03;6.80;99.90
63802;DHT22;49949;43.060;25.624;2024-03-07T06:25:31;6.90;99.90
63802;DHT22;49949;43.060;25.624;2024-03-07T06:28:10;7.10;99.90
63802;DHT22;49949;43.060;25.624;2024-03-07T06:30:40;7.30;99.90
63802;DHT22;49949;43.060;25.624;2024-03-07T06:33:07;7.40;99.90
63802;DHT22;49949;43.060;25.624;2024-03-07T06:35:33;7.60;99.90
63802;DHT22;49949;43.060;25.624;2024-03-07T06:38:12;7.70;99.90
63802;DHT22;49949;43.060;25.624;2024-03-07T06:40:38;7.90;99.90
63802;DHT22;49949;43.060;25.624;2024-03-07T06:43:10;7.90;99.90
63802;DHT22;49949;43.060;25.624;2024-03-07T06:45:39;8.00;99.90
63802;DHT22;49949;43.060;25.624;2024-03-07T06:48:07;8.10;99.90
63802;DHT22;49949;43.060;25.624;2024-03-07T06:50:37;8.20;99.90
63802;DHT22;49949;43.060;25.624;2024-03-07T06:53:03;8.30;99.90
63802;DHT22;49949;43.060;25.624;2024-03-07T06:55:29;8.40;99.90
63802;DHT22;49949;43.060;25.624;2024-03-07T06:57:55;8.40;99.90
63802;DHT22;49949;43.060;25.624;2024-03-07T07:00:21;8.40;99.90
63802;DHT22;49949;43.060;25.624;2024-03-07T07:02:50;8.40;99.90
63802;DHT22;49949;43.060;25.624;2024-03-07T07:05:16;8.50;99.90
63802;DHT22;49949;43.060;25.624;2024-03-07T07:07:44;8.50;99.90
63802;DHT22;49949;43.060;25.624;2024-03-07T07:10:10;8.50;99.90
63802;DHT22;49949;43.060;25.624;2024-03-07T07:12:49;8.50;99.90
63802;DHT22;49949;43.060;25.624;2024-03-07T07:15:16;8.50;99.90
63802;DHT22;49949;43.060;25.624;2024-03-07T07:17:44;8.60;99.90
63802;DHT22;49949;43.060;25.624;2024-03-07T07:20:14;8.70;99.90
63802;DHT22;49949;43.060;25.624;2024-03-07T07:22:42;8.60;99.90
63802;DHT22;49949;43.060;25.624;2024-03-07T07:25:08;8.50;99.90
63802;DHT22;49949;43.060;25.624;2024-03-07T07:27:49;8.40;99.90
63802;DHT22;49949;43.060;25.624;2024-03-07T07:30:17;8.40;99.90
63802;DHT22;49949;43.060;25.624;2024-03-07T07:32:43;8.40;99.90
63802;DHT22;49949;43.060;25.624;2024-03-07T07:35:11;8.50;99.90
63802;DHT22;49949;43.060;25.624;2024-03-07T07:37:44;8.50;99.90
63802;DHT22;49949;43.060;25.624;2024-03-07T07:40:12;8.50;99.90
63802;DHT22;49949;43.060;25.624;2024-03-07T07:42:42;8.50;99.90
63802;DHT22;49949;43.060;25.624;2024-03-07T07:45:09;8.50;99.90
63802;DHT22;49949;43.060;25.624;2024-03-07T07:47:43;8.30;99.90
63802;DHT22;49949;43.060;25.624;2024-03-07T07:50:10;8.10;99.90
63802;DHT22;49949;43.060;25.624;2024-03-07T07:52:49;8.10;99.90
63802;DHT22;49949;43.060;25.624;2024-03-07T07:55:19;8.10;99.90
63802;DHT22;49949;43.060;25.624;2024-03-07T07:57:49;8.10;99.90
63802;DHT22;49949;43.060;25.624;2024-03-07T08:00:18;8.10;99.90
63802;DHT22;49949;43.060;25.624;2024-03-07T08:03:16;8.10;99.90
63802;DHT22;49949;43.060;25.624;2024-03-07T08:05:43;8.10;99.90
63802;DHT22;49949;43.060;25.624;2024-03-07T08:08:10;8.10;99.90
63802;DHT22;49949;43.060;25.624;2024-03-07T08:10:39;8.00;99.90
63802;DHT22;49949;43.060;25.624;2024-03-07T08:13:06;7.90;99.90
63802;DHT22;49949;43.060;25.624;2024-03-07T08:15:33;7.70;99.90
63802;DHT22;49949;43.060;25.624;2024-03-07T08:18:00;7.70;99.90
63802;DHT22;49949;43.060;25.624;2024-03-07T08:20:26;7.70;99.90
63802;DHT22;49949;43.060;25.624;2024-03-07T08:22:53;7.70;99.90
63802;DHT22;49949;43.060;25.624;2024-03-07T08:25:22;7.60;99.90
63802;DHT22;49949;43.060;25.624;2024-03-07T08:27:56;7.60;99.90
63802;DHT22;49949;43.060;25.624;2024-03-07T08:30:22;7.60;99.90
63802;DHT22;49949;43.060;25.624;2024-03-07T08:32:52;7.50;99.90
63802;DHT22;49949;43.060;25.624;2024-03-07T08:35:19;7.40;99.90
63802;DHT22;49949;43.060;25.624;2024-03-07T08:37:46;7.40;99.90
63802;DHT22;49949;43.060;25.624;2024-03-07T08:40:15;7.40;99.90
63802;DHT22;49949;43.060;25.624;2024-03-07T08:42:50;7.50;99.90
63802;DHT22;49949;43.060;25.624;2024-03-07T08:45:17;7.50;99.90
63802;DHT22;49949;43.060;25.624;2024-03-07T08:47:45;7.40;99.90
63802;DHT22;49949;43.060;25.624;2024-03-07T08:50:12;7.40;99.90
63802;DHT22;49949;43.060;25.624;2024-03-07T08:52:40;7.40;99.90
63802;DHT22;49949;43.060;25.624;2024-03-07T08:55:06;7.40;99.90
63802;DHT22;49949;43.060;25.624;2024-03-07T08:57:35;7.40;99.90
63802;DHT22;49949;43.060;25.624;2024-03-07T09:00:05;7.40;99.90
63802;DHT22;49949;43.060;25.624;2024-03-07T09:02:38;7.30;99.90
63802;DHT22;49949;43.060;25.624;2024-03-07T09:05:04;7.40;99.90
63802;DHT22;49949;43.060;25.624;2024-03-07T09:07:30;7.40;99.90
63802;DHT22;49949;43.060;25.624;2024-03-07T09:09:57;7.40;99.90
63802;DHT22;49949;43.060;25.624;2024-03-07T09:12:22;7.50;99.90
63802;DHT22;49949;43.060;25.624;2024-03-07T09:14:51;7.40;99.90
63802;DHT22;49949;43.060;25.624;2024-03-07T09:17:17;7.40;99.90
63802;DHT22;49949;43.060;25.624;2024-03-07T09:19:43;7.30;99.90
63802;DHT22;49949;43.060;25.624;2024-03-07T09:22:09;7.30;99.90
63802;DHT22;49949;43.060;25.624;2024-03-07T09:24:35;7.30;99.90
63802;DHT22;49949;43.060;25.624;2024-03-07T09:27:03;7.30;99.90
63802;DHT22;49949;43.060;25.624;2024-03-07T09:29:30;7.30;99.90
63802;DHT22;49949;43.060;25.624;2024-03-07T09:31:56;7.30;99.90
63802;DHT22;49949;43.060;25.624;2024-03-07T09:34:24;7.20;99.90
63802;DHT22;49949;43.060;25.624;2024-03-07T09:36:50;7.20;99.90
63802;DHT22;49949;43.060;25.624;2024-03-07T09:39:17;7.20;99.90
63802;DHT22;49949;43.060;25.624;2024-03-07T09:41:44;7.20;99.90
63802;DHT22;49949;43.060;25.624;2024-03-07T09:44:16;7.20;99.90
63802;DHT22;49949;43.060;25.624;2024-03-07T09:46:48;7.20;99.90
63802;DHT22;49949;43.060;25.624;2024-03-07T09:49:15;7.20;99.90
63802;DHT22;49949;43.060;25.624;2024-03-07T09:51:43;7.20;99.90
63802;DHT22;49949;43.060;25.624;2024-03-07T09:54:10;7.10;99.90
63802;DHT22;49949;43.060;25.624;2024-03-07T09:56:36;7.10;99.90
63802;DHT22;49949;43.060;25.624;2024-03-07T09:59:04;7.10;99.90
63802;DHT22;49949;43.060;25.624;2024-03-07T10:01:33;7.10;99.90
63802;DHT22;49949;43.060;25.624;2024-03-07T10:04:02;7.20;99.90
63802;DHT22;49949;43.060;25.624;2024-03-07T10:06:46;7.30;99.90
63802;DHT22;49949;43.060;25.624;2024-03-07T10:09:13;7.30;99.90
63802;DHT22;49949;43.060;25.624;2024-03-07T10:11:40;7.30;99.90
63802;DHT22;49949;43.060;25.624;2024-03-07T10:14:09;7.30;99.90
63802;DHT22;49949;43.060;25.624;2024-03-07T10:16:36;7.40;99.90
63802;DHT22;49949;43.060;25.624;2024-03-07T10:19:05;7.50;99.90
63802;DHT22;49949;43.060;25.624;2024-03-07T10:21:33;7.60;99.90
63802;DHT22;49949;43.060;25.624;2024-03-07T10:24:08;7.70;99.90
63802;DHT22;49949;43.060;25.624;2024-03-07T10:26:35;7.90;99.90
63802;DHT22;49949;43.060;25.624;2024-03-07T10:29:01;8.00;99.90
63802;DHT22;49949;43.060;25.624;2024-03-07T10:31:31;8.10;99.90
63802;DHT22;49949;43.060;25.624;2024-03-07T10:34:01;8.10;99.90
63802;DHT22;49949;43.060;25.624;2024-03-07T10:36:31;8.10;99.90
63802;DHT22;49949;43.060;25.624;2024-03-07T10:39:01;8.20;99.90
63802;DHT22;49949;43.060;25.624;2024-03-07T10:41:48;8.20;99.90
63802;DHT22;49949;43.060;25.624;2024-03-07T10:44:36;8.20;99.90
63802;DHT22;49949;43.060;25.624;2024-03-07T10:47:08;8.30;99.90
63802;DHT22;49949;43.060;25.624;2024-03-07T10:49:37;8.40;99.90
63802;DHT22;49949;43.060;25.624;2024-03-07T10:52:19;8.50;99.90
63802;DHT22;49949;43.060;25.624;2024-03-07T10:57:50;8.70;99.90
63802;DHT22;49949;43.060;25.624;2024-03-07T11:00:21;8.80;99.90
63802;DHT22;49949;43.060;25.624;2024-03-07T11:03:02;8.90;99.90
63802;DHT22;49949;43.060;25.624;2024-03-07T11:05:33;8.90;99.90
63802;DHT22;49949;43.060;25.624;2024-03-07T11:08:01;8.80;99.90
63802;DHT22;49949;43.060;25.624;2024-03-07T11:10:47;8.80;99.90
63802;DHT22;49949;43.060;25.624;2024-03-07T11:13:14;8.80;99.90
63802;DHT22;49949;43.060;25.624;2024-03-07T11:15:44;8.70;99.90
63802;DHT22;49949;43.060;25.624;2024-03-07T11:18:11;8.80;99.90
63802;DHT22;49949;43.060;25.624;2024-03-07T11:20:39;8.70;99.90
63802;DHT22;49949;43.060;25.624;2024-03-07T11:23:46;8.60;99.90
63802;DHT22;49949;43.060;25.624;2024-03-07T11:26:12;8.70;99.90
63802;DHT22;49949;43.060;25.624;2024-03-07T11:28:41;8.70;99.90
63802;DHT22;49949;43.060;25.624;2024-03-07T11:31:33;8.80;99.90
63802;DHT22;49949;43.060;25.624;2024-03-07T11:34:14;8.80;99.90
63802;DHT22;49949;43.060;25.624;2024-03-07T11:36:44;8.70;99.90
63802;DHT22;49949;43.060;25.624;2024-03-07T11:39:44;8.70;99.90
63802;DHT22;49949;43.060;25.624;2024-03-07T11:42:23;8.70;99.90
63802;DHT22;49949;43.060;25.624;2024-03-07T11:44:52;8.80;99.90
63802;DHT22;49949;43.060;25.624;2024-03-07T11:47:24;8.90;99.90
63802;DHT22;49949;43.060;25.624;2024-03-07T11:49:51;8.80;99.90
63802;DHT22;49949;43.060;25.624;2024-03-07T11:52:19;8.80;99.90
63802;DHT22;49949;43.060;25.624;2024-03-07T11:54:44;9.00;99.90
63802;DHT22;49949;43.060;25.624;2024-03-07T11:57:19;8.90;99.90
63802;DHT22;49949;43.060;25.624;2024-03-07T11:59:52;8.90;99.90
63802;DHT22;49949;43.060;25.624;2024-03-07T12:02:18;8.90;99.90
63802;DHT22;49949;43.060;25.624;2024-03-07T12:04:50;9.00;99.90
63802;DHT22;49949;43.060;25.624;2024-03-07T12:07:16;9.00;99.90
63802;DHT22;49949;43.060;25.624;2024-03-07T12:09:48;9.00;99.90
63802;DHT22;49949;43.060;25.624;2024-03-07T12:12:20;9.00;99.90
63802;DHT22;49949;43.060;25.624;2024-03-07T12:14:54;9.00;99.90
63802;DHT22;49949;43.060;25.624;2024-03-07T12:17:21;9.00;99.90
63802;DHT22;49949;43.060;25.624;2024-03-07T12:19:47;9.00;99.90
63802;DHT22;49949;43.060;25.624;2024-03-07T12:22:13;9.00;99.90
63802;DHT22;49949;43.060;25.624;2024-03-07T12:24:42;9.10;99.90
63802;DHT22;49949;43.060;25.624;2024-03-07T12:27:08;9.30;99.90
63802;DHT22;49949;43.060;25.624;2024-03-07T12:29:38;9.40;99.90
63802;DHT22;49949;43.060;25.624;2024-03-07T12:32:08;9.50;99.90
63802;DHT22;49949;43.060;25.624;2024-03-07T12:34:36;9.60;99.90
63802;DHT22;49949;43.060;25.624;2024-03-07T12:37:12;9.70;99.90
63802;DHT22;49949;43.060;25.624;2024-03-07T12:39:43;9.70;99.90
63802;DHT22;49949;43.060;25.624;2024-03-07T12:42:12;9.70;99.90
63802;DHT22;49949;43.060;25.624;2024-03-07T12:44:44;9.70;99.90
63802;DHT22;49949;43.060;25.624;2024-03-07T12:47:15;9.70;99.90
63802;DHT22;49949;43.060;25.624;2024-03-07T12:49:41;9.60;99.90
63802;DHT22;49949;43.060;25.624;2024-03-07T12:52:08;9.40;99.90
63802;DHT22;49949;43.060;25.624;2024-03-07T12:54:36;9.50;99.90
63802;DHT22;49949;43.060;25.624;2024-03-07T12:57:15;9.30;99.90
63802;DHT22;49949;43.060;25.624;2024-03-07T12:59:41;9.30;99.90
63802;DHT22;49949;43.060;25.624;2024-03-07T13:02:08;9.30;99.90
63802;DHT22;49949;43.060;25.624;2024-03-07T13:04:34;9.30;99.90
63802;DHT22;49949;43.060;25.624;2024-03-07T13:07:00;9.30;99.90
63802;DHT22;49949;43.060;25.624;2024-03-07T13:09:30;9.40;99.90
63802;DHT22;49949;43.060;25.624;2024-03-07T13:11:57;9.40;99.90
63802;DHT22;49949;43.060;25.624;2024-03-07T13:14:26;9.50;99.90
63802;DHT22;49949;43.060;25.624;2024-03-07T13:16:55;9.60;99.90
63802;DHT22;49949;43.060;25.624;2024-03-07T13:19:21;9.70;99.90
63802;DHT22;49949;43.060;25.624;2024-03-07T13:21:47;9.80;99.90
63802;DHT22;49949;43.060;25.624;2024-03-07T13:24:16;9.90;99.90
63802;DHT22;49949;43.060;25.624;2024-03-07T13:26:43;9.90;99.90
63802;DHT22;49949;43.060;25.624;2024-03-07T13:29:08;10.00;99.90
63802;DHT22;49949;43.060;25.624;2024-03-07T13:31:35;9.90;99.90
63802;DHT22;49949;43.060;25.624;2024-03-07T13:34:01;9.80;99.90
63802;DHT22;49949;43.060;25.624;2024-03-07T13:36:28;9.80;99.90
63802;DHT22;49949;43.060;25.624;2024-03-07T13:38:54;9.80;99.90
63802;DHT22;49949;43.060;25.624;2024-03-07T13:41:21;9.80;99.90
63802;DHT22;49949;43.060;25.624;2024-03-07T13:43:48;9.90;99.90
63802;DHT22;49949;43.060;25.624;2024-03-07T13:46:17;9.90;99.90
63802;DHT22;49949;43.060;25.624;2024-03-07T13:48:43;9.90;99.90
63802;DHT22;49949;43.060;25.624;2024-03-07T13:51:10;9.90;99.90
63802;DHT22;49949;43.060;25.624;2024-03-07T13:53:40;9.90;99.90
63802;DHT22;49949;43.060;25.624;2024-03-07T13:56:47;10.00;99.90
63802;DHT22;49949;43.060;25.624;2024-03-07T13:59:28;10.20;99.90
63802;DHT22;49949;43.060;25.624;2024-03-07T14:13:34;10.40;99.90
63802;DHT22;49949;43.060;25.624;2024-03-07T14:28:27;10.60;99.90
63802;DHT22;49949;43.060;25.624;2024-03-07T14:30:58;10.70;99.90
63802;DHT22;49949;43.060;25.624;2024-03-07T14:36:14;10.50;99.90
63802;DHT22;49949;43.060;25.624;2024-03-07T14:38:47;10.40;99.90
63802;DHT22;49949;43.060;25.624;2024-03-07T14:41:15;10.40;99.90
63802;DHT22;49949;43.060;25.624;2024-03-07T14:43:42;10.40;99.90
63802;DHT22;49949;43.060;25.624;2024-03-07T14:46:10;10.40;99.90
63802;DHT22;49949;43.060;25.624;2024-03-07T14:48:38;10.40;99.90
63802;DHT22;49949;43.060;25.624;2024-03-07T14:51:07;10.40;99.90
63802;DHT22;49949;43.060;25.624;2024-03-07T14:53:33;10.20;99.90
63802;DHT22;49949;43.060;25.624;2024-03-07T14:55:59;10.10;99.90
63802;DHT22;49949;43.060;25.624;2024-03-07T14:58:25;10.00;99.90
63802;DHT22;49949;43.060;25.624;2024-03-07T15:00:52;9.90;99.90
63802;DHT22;49949;43.060;25.624;2024-03-07T15:03:20;9.80;99.90
63802;DHT22;49949;43.060;25.624;2024-03-07T15:05:46;9.70;99.90
63802;DHT22;49949;43.060;25.624;2024-03-07T15:08:14;9.60;99.90
63802;DHT22;49949;43.060;25.624;2024-03-07T15:10:50;9.60;99.90
63802;DHT22;49949;43.060;25.624;2024-03-07T15:13:17;9.50;99.90
63802;DHT22;49949;43.060;25.624;2024-03-07T15:15:43;9.40;99.90
63802;DHT22;49949;43.060;25.624;2024-03-07T15:18:10;9.40;99.90
63802;DHT22;49949;43.060;25.624;2024-03-07T15:20:36;9.30;99.90
63802;DHT22;49949;43.060;25.624;2024-03-07T15:23:02;9.20;99.90
63802;DHT22;49949;43.060;25.624;2024-03-07T15:25:34;9.10;99.90
63802;DHT22;49949;43.060;25.624;2024-03-07T15:27:59;9.10;99.90
63802;DHT22;49949;43.060;25.624;2024-03-07T15:30:27;9.00;99.90
63802;DHT22;49949;43.060;25.624;2024-03-07T15:33:03;9.00;99.90
63802;DHT22;49949;43.060;25.624;2024-03-07T15:35:29;9.00;99.90
63802;DHT22;49949;43.060;25.624;2024-03-07T15:37:56;9.00;99.90
63802;DHT22;49949;43.060;25.624;2024-03-07T15:40:22;9.00;99.90
63802;DHT22;49949;43.060;25.624;2024-03-07T15:42:50;9.00;99.90
63802;DHT22;49949;43.060;25.624;2024-03-07T15:45:21;8.90;99.90
63802;DHT22;49949;43.060;25.624;2024-03-07T15:47:49;8.80;99.90
63802;DHT22;49949;43.060;25.624;2024-03-07T15:50:15;8.70;99.90
63802;DHT22;49949;43.060;25.624;2024-03-07T15:52:44;8.80;99.90
63802;DHT22;49949;43.060;25.624;2024-03-07T15:55:11;8.70;99.90
63802;DHT22;49949;43.060;25.624;2024-03-07T15:57:47;8.70;99.90
63802;DHT22;49949;43.060;25.624;2024-03-07T16:00:18;8.70;99.90
63802;DHT22;49949;43.060;25.624;2024-03-07T16:02:55;8.70;99.90
63802;DHT22;49949;43.060;25.624;2024-03-07T16:05:26;8.50;99.90
63802;DHT22;49949;43.060;25.624;2024-03-07T16:07:54;8.50;99.90